Time;durP1;ratioP1;P1;durP2;ratioP2;P2;SDS_P1;SDS_P2;PMS_P1;PMS_P2;Temp;Humidity;BMP_temperature;BMP_pressure;BME280_temperature;BME280_humidity;BME280_pressure;Samples;Min_cycle;Max_cycle;Signal;HPM_P1;HPM_P2
2022/05/09 00:00:40;;;;;;;23.30;21.08;;;;;;;13.89;100.00;99863.97;2033478;29;20195;-67
2022/05/09 00:01:43;;;;;;;21.23;19.63;;;;;;;13.91;100.00;99867.19;2041884;29;20191;-67
2022/05/09 00:02:46;;;;;;;21.65;19.63;;;;;;;13.91;100.00;99859.13;2041876;29;20191;-67
2022/05/09 00:03:48;;;;;;;23.60;21.58;;;;;;;13.91;100.00;99864.50;2041272;29;20235;-68
2022/05/09 00:04:49;;;;;;;24.17;22.17;;;;;;;13.89;100.00;99865.88;2041431;29;20676;-67
2022/05/09 00:05:50;;;;;;;24.88;22.77;;;;;;;13.87;100.00;99863.50;2041250;29;20209;-67
2022/05/09 00:06:52;;;;;;;24.23;22.33;;;;;;;13.80;100.00;99866.56;2040868;29;20313;-67
2022/05/09 00:07:54;;;;;;;24.45;22.17;;;;;;;13.73;100.00;99865.38;2041987;29;20261;-67
2022/05/09 00:09:00;;;;;;;23.75;21.88;;;;;;;13.76;100.00;99865.56;2041842;29;20274;-67
2022/05/09 00:10:02;;;;;;;24.50;22.45;;;;;;;13.89;100.00;99871.22;2041231;29;20603;-67
2022/05/09 00:11:03;;;;;;;20.38;18.52;;;;;;;13.74;100.00;99870.44;2041560;29;20268;-67
2022/05/09 00:12:05;;;;;;;20.98;19.10;;;;;;;13.70;100.00;99871.31;2041966;29;20206;-67
2022/05/09 00:13:06;;;;;;;20.75;18.95;;;;;;;13.71;100.00;99865.66;2041848;29;20203;-67
2022/05/09 00:14:10;;;;;;;20.48;18.88;;;;;;;13.75;100.00;99871.25;2041903;29;20190;-67
2022/05/09 00:15:14;;;;;;;19.77;18.17;;;;;;;13.75;100.00;99876.59;2033004;29;20221;-67
2022/05/09 00:16:15;;;;;;;21.02;19.42;;;;;;;13.75;100.00;99876.59;2025942;29;20196;-67
2022/05/09 00:17:19;;;;;;;21.30;19.50;;;;;;;13.70;100.00;99872.13;2033710;29;20191;-67
2022/05/09 00:18:20;;;;;;;21.48;19.50;;;;;;;13.68;100.00;99870.84;2033308;29;20199;-67
2022/05/09 00:19:22;;;;;;;21.20;19.70;;;;;;;13.73;100.00;99863.50;2032656;29;20671;-66
2022/05/09 00:20:24;;;;;;;20.95;19.15;;;;;;;13.73;100.00;99871.53;2033332;29;20313;-67
2022/05/09 00:21:26;;;;;;;20.33;18.63;;;;;;;13.74;100.00;99870.44;2040939;29;20572;-68
2022/05/09 00:22:29;;;;;;;19.88;18.27;;;;;;;13.75;100.00;99873.94;2041855;29;20273;-68
2022/05/09 00:23:30;;;;;;;20.42;18.80;;;;;;;13.75;100.00;99873.94;2041852;29;20658;-66
2022/05/09 00:24:32;;;;;;;19.77;18.20;;;;;;;13.78;100.00;99876.00;2042142;29;20193;-67
2022/05/09 00:25:32;;;;;;;20.05;18.60;;;;;;;13.84;100.00;99874.81;2041838;29;20199;-66
2022/05/09 00:26:34;;;;;;;19.63;18.03;;;;;;;13.78;100.00;99879.47;2032751;29;20204;-66
2022/05/09 00:27:35;;;;;;;19.50;17.88;;;;;;;13.73;100.00;99878.81;2024862;29;20212;-67
2022/05/09 00:28:37;;;;;;;18.70;17.10;;;;;;;13.73;100.00;99884.97;2033478;29;20235;-67
2022/05/09 00:29:39;;;;;;;19.33;17.83;;;;;;;13.72;100.00;99877.97;2042009;29;20195;-68
2022/05/09 00:30:43;;;;;;;20.27;18.60;;;;;;;13.68;100.00;99876.19;2041823;29;20191;-68
2022/05/09 00:31:49;;;;;;;16.55;15.32;;;;;;;13.85;100.00;99887.16;2041910;29;20187;-66
2022/05/09 00:32:52;;;;;;;15.60;14.65;;;;;;;13.91;100.00;99880.59;2041718;29;20297;-68
2022/05/09 00:33:55;;;;;;;18.77;17.45;;;;;;;13.95;100.00;99880.78;2041782;29;20312;-66
2022/05/09 00:34:57;;;;;;;19.00;17.40;;;;;;;13.88;100.00;99881.16;2041825;29;20191;-66
2022/05/09 00:35:59;;;;;;;20.13;18.42;;;;;;;13.84;100.00;99880.19;2040592;29;20250;-68
2022/05/09 00:37:01;;;;;;;21.17;19.48;;;;;;;13.83;100.00;99887.44;2041144;29;20202;-68
2022/05/09 00:38:01;;;;;;;25.65;23.00;;;;;;;13.80;100.00;99884.53;2041462;29;20234;-68
2022/05/09 00:39:03;;;;;;;27.50;24.80;;;;;;;13.74;100.00;99886.53;2041770;29;20183;-68
2022/05/09 00:40:08;;;;;;;32.55;29.40;;;;;;;13.67;100.00;99891.50;2041749;29;20201;-68
2022/05/09 00:42:29;;;;;;;38.10;34.30;;;;;;;13.48;100.00;99893.44;2041132;29;20282;-65
2022/05/09 00:43:31;;;;;;;52.03;35.85;;;;;;;13.38;100.00;99885.56;2033203;29;20204;-68
2022/05/09 00:44:36;;;;;;;41.35;35.40;;;;;;;13.31;100.00;99894.00;2025666;29;20196;-68
2022/05/09 00:45:37;;;;;;;40.10;36.05;;;;;;;13.28;100.00;99899.91;2033934;29;20714;-68
2022/05/09 00:46:40;;;;;;;41.93;34.30;;;;;;;13.25;100.00;99895.94;2033186;29;20568;-69
2022/05/09 00:47:41;;;;;;;37.22;33.72;;;;;;;13.17;100.00;99901.16;2033496;29;20196;-68
2022/05/09 00:48:48;;;;;;;33.83;31.07;;;;;;;13.17;100.00;99909.19;2041670;29;20239;-68
2022/05/09 00:49:54;;;;;;;33.97;31.05;;;;;;;13.10;100.00;99903.41;2032715;29;20479;-68
2022/05/09 00:50:57;;;;;;;34.03;30.80;;;;;;;13.11;100.00;99905.78;2033643;29;20211;-68
2022/05/09 00:52:01;;;;;;;33.05;30.10;;;;;;;13.07;100.00;99909.34;2043110;29;20233;-68
2022/05/09 00:53:06;;;;;;;32.38;29.92;;;;;;;13.02;100.00;99911.00;2043377;29;20186;-68
2022/05/09 00:54:07;;;;;;;33.00;29.95;;;;;;;13.09;100.00;99902.59;2043190;29;20195;-68
2022/05/09 00:55:12;;;;;;;29.33;27.03;;;;;;;13.08;100.00;99905.59;2034614;29;20199;-68
2022/05/09 00:56:17;;;;;;;30.77;27.98;;;;;;;13.01;100.00;99909.41;2035543;29;20624;-68
2022/05/09 00:57:22;;;;;;;32.20;29.77;;;;;;;12.96;100.00;99914.88;2043191;29;20183;-68
2022/05/09 00:58:26;;;;;;;32.95;30.33;;;;;;;12.93;100.00;99910.06;2043111;29;20202;-68
2022/05/09 00:59:29;;;;;;;34.38;31.17;;;;;;;12.88;100.00;99917.41;2043138;29;20562;-68
2022/05/09 01:00:30;;;;;;;34.90;31.90;;;;;;;12.85;100.00;99917.97;2042437;29;20199;-68
2022/05/09 01:01:32;;;;;;;36.07;32.83;;;;;;;12.83;100.00;99915.56;2034011;29;20207;-71
2022/05/09 01:02:33;;;;;;;36.75;33.35;;;;;;;12.83;100.00;99912.91;2034759;29;20195;-71
2022/05/09 01:03:44;;;;;;;36.40;33.03;;;;;;;12.87;100.00;99913.13;2034092;29;20204;-71
2022/05/09 01:04:52;;;;;;;35.13;32.25;;;;;;;12.83;100.00;99920.94;2028274;29;20268;-71
2022/05/09 01:05:54;;;;;;;36.00;32.92;;;;;;;12.84;100.00;99917.16;2035105;29;20293;-71
2022/05/09 01:06:55;;;;;;;33.67;30.90;;;;;;;12.91;100.00;99922.97;2034343;29;20214;-71
2022/05/09 01:07:58;;;;;;;33.80;31.00;;;;;;;12.90;100.00;99926.72;2034725;29;20192;-71
2022/05/09 01:08:59;;;;;;;36.10;33.13;;;;;;;12.78;100.00;99925.59;2042992;29;20693;-71
2022/05/09 01:10:03;;;;;;;33.47;30.63;;;;;;;12.78;100.00;99923.69;2043071;29;20544;-71
2022/05/09 01:11:10;;;;;;;34.20;31.45;;;;;;;12.80;100.00;99932.22;2043246;29;20184;-71
2022/05/09 01:12:13;;;;;;;35.22;32.55;;;;;;;12.80;100.00;99926.09;2043100;29;20617;-71
2022/05/09 01:13:15;;;;;;;36.22;33.15;;;;;;;12.74;100.00;99928.81;2043049;29;20658;-71
2022/05/09 01:14:19;;;;;;;34.00;31.17;;;;;;;12.71;100.00;99923.25;2043055;29;20195;-71
2022/05/09 01:15:20;;;;;;;33.28;30.48;;;;;;;12.70;100.00;99924.34;2034187;29;20208;-71
2022/05/09 01:16:22;;;;;;;34.63;31.50;;;;;;;12.70;100.00;99922.47;2034801;29;20192;-71
2022/05/09 01:17:23;;;;;;;34.53;31.40;;;;;;;12.71;100.00;99937.44;2043058;29;20195;-71
2022/05/09 01:18:26;;;;;;;33.13;30.52;;;;;;;12.71;100.00;99936.66;2043086;29;20278;-71
2022/05/09 01:19:31;;;;;;;33.85;31.20;;;;;;;12.70;100.00;99932.38;2041951;29;20207;-71
2022/05/09 01:20:33;;;;;;;32.90;30.48;;;;;;;12.76;100.00;99928.53;2034489;29;20203;-71
2022/05/09 01:21:37;;;;;;;32.50;29.58;;;;;;;12.75;100.00;99924.25;2034330;29;20714;-71
2022/05/09 01:22:40;;;;;;;34.78;32.10;;;;;;;12.81;100.00;99922.31;2043095;29;20648;-71
2022/05/09 01:23:44;;;;;;;34.50;31.58;;;;;;;12.81;100.00;99930.34;2042255;29;20222;-71
2022/05/09 01:24:50;;;;;;;33.95;31.08;;;;;;;12.76;100.00;99927.72;2042373;29;20199;-71
2022/05/09 01:25:52;;;;;;;34.20;31.45;;;;;;;12.75;100.00;99929.63;2042393;29;20188;-71
2022/05/09 01:26:54;;;;;;;33.05;30.60;;;;;;;12.82;100.00;99929.25;2043000;29;20187;-71
2022/05/09 01:27:55;;;;;;;34.17;31.52;;;;;;;12.78;100.00;99934.41;2043011;29;20194;-71
2022/05/09 01:29:01;;;;;;;35.28;32.28;;;;;;;12.80;100.00;99942.94;2042783;29;20211;-71
2022/05/09 01:30:06;;;;;;;33.08;30.58;;;;;;;12.80;100.00;99937.59;2043068;29;20623;-71
2022/05/09 01:31:13;;;;;;;33.28;30.73;;;;;;;12.76;100.00;99939.22;2033544;29;20204;-71
2022/05/09 01:32:18;;;;;;;32.08;29.58;;;;;;;12.77;100.00;99938.19;2035460;29;20183;-71
2022/05/09 01:33:22;;;;;;;30.98;28.67;;;;;;;12.74;100.00;99942.22;2042807;29;20254;-71
2022/05/09 01:34:24;;;;;;;31.77;29.27;;;;;;;12.72;100.00;99928.31;2034372;29;20686;-71
2022/05/09 01:35:32;;;;;;;33.45;30.83;;;;;;;12.74;100.00;99934.19;2034699;29;20698;-70
2022/05/09 01:36:36;;;;;;;30.63;28.10;;;;;;;12.79;100.00;99930.66;2042634;29;20266;-71
2022/05/09 01:37:38;;;;;;;31.73;29.33;;;;;;;12.73;100.00;99937.94;2043002;29;20676;-71
2022/05/09 01:38:44;;;;;;;34.42;31.63;;;;;;;12.74;100.00;99931.50;2042878;29;20259;-71
2022/05/09 01:39:45;;;;;;;31.13;28.83;;;;;;;12.79;100.00;99927.97;2033770;29;20218;-71
2022/05/09 01:40:47;;;;;;;32.13;29.53;;;;;;;12.81;100.00;99933.81;2034317;29;20210;-71
2022/05/09 01:41:50;;;;;;;33.03;30.40;;;;;;;12.87;100.00;99929.22;2042487;29;20273;-71
2022/05/09 01:42:55;;;;;;;33.20;30.52;;;;;;;12.81;100.00;99933.81;2042893;29;20171;-71
2022/05/09 01:43:56;;;;;;;32.03;29.42;;;;;;;12.80;100.00;99928.75;2042186;29;20210;-71
2022/05/09 01:44:58;;;;;;;31.80;28.97;;;;;;;12.78;100.00;99923.69;2042474;29;20273;-71
2022/05/09 01:46:01;;;;;;;33.13;30.38;;;;;;;12.76;100.00;99925.84;2042806;29;20533;-71
2022/05/09 01:49:41;;;;;;;31.95;28.85;;;;;;;12.76;100.00;99931.19;2018706;29;20231;-71
2022/05/09 01:50:41;;;;;;;31.98;29.48;;;;;;;12.76;100.00;99941.13;2029720;29;20208;-71
2022/05/09 01:51:48;;;;;;;32.20;29.67;;;;;;;12.73;100.00;99934.47;2025544;29;20251;-71
2022/05/09 01:52:50;;;;;;;31.75;29.02;;;;;;;12.74;100.00;99931.50;2027118;29;20196;-71
2022/05/09 01:53:54;;;;;;;30.48;28.10;;;;;;;12.78;100.00;99934.41;2034863;29;20192;-71
2022/05/09 01:54:55;;;;;;;30.60;28.00;;;;;;;12.81;100.00;99933.81;2034174;29;20204;-71
2022/05/09 01:55:56;;;;;;;30.90;28.40;;;;;;;12.80;100.00;99932.22;2034353;29;20207;-71
2022/05/09 01:56:58;;;;;;;33.00;29.83;;;;;;;12.80;100.00;99931.44;2042720;29;20717;-71
2022/05/09 01:58:01;;;;;;;33.78;30.77;;;;;;;12.82;100.00;99935.41;2042811;29;20206;-71
2022/05/09 01:59:06;;;;;;;32.30;29.05;;;;;;;12.77;100.00;99932.81;2042732;29;20191;-71
2022/05/09 02:00:10;;;;;;;32.72;29.88;;;;;;;12.74;100.00;99928.81;2041978;29;20230;-71
2022/05/09 02:01:22;;;;;;;32.17;29.17;;;;;;;12.75;100.00;99934.97;2042398;29;20176;-71
2022/05/09 02:02:23;;;;;;;31.73;29.00;;;;;;;12.76;100.00;99933.09;2042902;29;20595;-71
2022/05/09 02:03:24;;;;;;;31.95;29.33;;;;;;;12.72;100.00;99930.19;2033094;29;20239;-71
2022/05/09 02:04:26;;;;;;;32.37;29.27;;;;;;;12.63;100.00;99927.38;2034298;29;20694;-71
2022/05/09 02:05:29;;;;;;;34.80;31.65;;;;;;;12.83;100.00;99930.84;2042774;29;20218;-71
2022/05/09 02:06:31;;;;;;;33.40;30.40;;;;;;;12.91;100.00;99932.88;2042260;29;20223;-71
2022/05/09 02:07:35;;;;;;;30.58;28.08;;;;;;;12.87;100.00;99923.84;2041325;29;20203;-71
2022/05/09 02:08:37;;;;;;;31.40;28.52;;;;;;;12.87;100.00;99930.00;2042195;29;20203;-71
2022/05/09 02:09:39;;;;;;;33.08;30.08;;;;;;;12.78;100.00;99928.25;2042657;29;20246;-71
2022/05/09 02:10:42;;;;;;;31.15;28.27;;;;;;;12.76;100.00;99931.19;2042625;29;20238;-71
2022/05/09 02:11:44;;;;;;;34.50;31.30;;;;;;;12.73;100.00;99939.81;2042587;29;20562;-71
2022/05/09 02:12:47;;;;;;;34.10;31.27;;;;;;;12.66;100.00;99928.66;2034072;29;20203;-70
2022/05/09 02:13:49;;;;;;;32.22;29.38;;;;;;;12.61;100.00;99934.91;2034561;29;20203;-71
2022/05/09 02:14:50;;;;;;;31.37;28.60;;;;;;;12.57;100.00;99936.53;2042584;29;20195;-71
2022/05/09 02:15:51;;;;;;;33.53;29.80;;;;;;;12.55;100.00;99930.69;2042786;29;20206;-71
2022/05/09 02:16:52;;;;;;;30.43;27.83;;;;;;;12.57;100.00;99930.41;2042626;29;20283;-71
2022/05/09 02:17:53;;;;;;;29.92;27.15;;;;;;;12.54;100.00;99933.66;2033983;29;20218;-71
2022/05/09 02:18:56;;;;;;;32.03;29.07;;;;;;;12.53;100.00;99929.38;2026256;29;20202;-71
2022/05/09 02:19:58;;;;;;;32.05;29.45;;;;;;;12.51;100.00;99937.72;2034440;29;20195;-71
2022/05/09 02:21:00;;;;;;;32.28;29.27;;;;;;;12.49;100.00;99933.72;2042035;29;20191;-71
2022/05/09 02:22:01;;;;;;;31.45;28.50;;;;;;;12.48;100.00;99940.16;2042793;29;20623;-71
2022/05/09 02:23:05;;;;;;;30.05;27.33;;;;;;;12.53;100.00;99940.09;2042634;29;20191;-71
2022/05/09 02:24:07;;;;;;;30.70;27.70;;;;;;;12.52;100.00;99946.53;2042512;29;20278;-71
2022/05/09 02:26:27;;;;;;;32.17;28.83;;;;;;;12.65;100.00;99951.16;2042218;29;20722;-71
2022/05/09 02:27:28;;;;;;;31.88;29.08;;;;;;;12.50;100.00;99944.13;2042485;29;20200;-71
2022/05/09 02:28:30;;;;;;;31.25;28.13;;;;;;;12.55;100.00;99952.09;2042524;29;20304;-71
2022/05/09 02:29:31;;;;;;;30.65;27.77;;;;;;;12.53;100.00;99954.28;2042303;29;20250;-71
2022/05/09 02:30:33;;;;;;;30.83;27.63;;;;;;;12.50;100.00;99952.16;2042499;29;20191;-71
2022/05/09 02:31:34;;;;;;;29.20;26.63;;;;;;;12.53;100.00;99956.94;2041388;29;20225;-71
2022/05/09 02:32:38;;;;;;;29.50;27.07;;;;;;;12.56;100.00;99958.25;2041905;29;20201;-71
2022/05/09 02:33:39;;;;;;;29.73;27.08;;;;;;;12.61;100.00;99953.63;2042610;29;20183;-72
2022/05/09 02:34:41;;;;;;;28.27;25.73;;;;;;;12.63;100.00;99956.03;2042481;29;20195;-71
2022/05/09 02:35:42;;;;;;;29.38;26.77;;;;;;;12.61;100.00;99958.19;2042616;29;20442;-71
2022/05/09 02:36:45;;;;;;;31.60;28.67;;;;;;;12.62;100.00;99951.75;2033679;29;20235;-71
2022/05/09 02:37:47;;;;;;;30.98;28.23;;;;;;;12.68;100.00;99951.41;2033919;29;20203;-71
2022/05/09 02:38:50;;;;;;;29.30;26.77;;;;;;;12.69;100.00;99957.56;2033902;29;20214;-71
2022/05/09 02:39:52;;;;;;;29.75;27.05;;;;;;;12.62;100.00;99959.78;2034038;29;20726;-71
2022/05/09 02:40:55;;;;;;;31.08;28.27;;;;;;;12.70;100.00;99953.78;2033859;29;20664;-71
2022/05/09 02:41:57;;;;;;;30.80;27.77;;;;;;;12.63;100.00;99945.31;2034183;29;20207;-71
2022/05/09 02:42:58;;;;;;;30.23;27.83;;;;;;;12.67;100.00;99960.50;2042396;29;20218;-71
2022/05/09 02:43:59;;;;;;;31.42;28.73;;;;;;;12.74;100.00;99968.19;2042357;29;20209;-71
2022/05/09 02:45:01;;;;;;;30.73;27.87;;;;;;;12.72;100.00;99960.44;2042587;29;20199;-71
2022/05/09 02:46:03;;;;;;;31.23;28.42;;;;;;;12.73;100.00;99967.41;2042326;29;20201;-71
2022/05/09 02:47:06;;;;;;;32.72;29.20;;;;;;;12.71;100.00;99961.53;2042322;29;20198;-71
2022/05/09 02:48:10;;;;;;;30.45;27.95;;;;;;;12.68;100.00;99966.66;2042310;29;20187;-70
2022/05/09 02:49:13;;;;;;;31.73;28.48;;;;;;;12.69;100.00;99971.75;2033685;29;20199;-70
2022/05/09 02:50:14;;;;;;;31.50;28.80;;;;;;;12.69;100.00;99968.28;2033796;29;20199;-70
2022/05/09 02:51:17;;;;;;;31.92;29.13;;;;;;;12.70;100.00;99969.88;2041275;29;20298;-71
2022/05/09 02:52:17;;;;;;;29.88;26.95;;;;;;;12.71;100.00;99972.25;2042297;29;20681;-71
2022/05/09 02:53:23;;;;;;;30.03;27.43;;;;;;;12.75;100.00;99967.09;2042288;29;20593;-71
2022/05/09 02:54:30;;;;;;;30.95;27.33;;;;;;;12.76;100.00;99965.22;2042326;29;20206;-70
2022/05/09 02:55:32;;;;;;;28.63;26.23;;;;;;;12.78;100.00;99971.09;2042277;29;20197;-71
2022/05/09 02:56:32;;;;;;;29.75;26.95;;;;;;;12.79;100.00;99968.13;2041257;29;20206;-70
2022/05/09 02:57:34;;;;;;;29.20;26.80;;;;;;;12.86;100.00;99973.94;2041594;29;20230;-71
2022/05/09 02:58:36;;;;;;;28.83;26.25;;;;;;;12.91;100.00;99971.19;2041722;29;20199;-71
2022/05/09 02:59:38;;;;;;;29.50;26.63;;;;;;;12.83;100.00;99977.16;2042290;29;20191;-71
2022/05/09 03:00:40;;;;;;;30.10;27.10;;;;;;;12.89;100.00;99978.72;2041572;29;20206;-70
2022/05/09 03:01:42;;;;;;;28.13;25.48;;;;;;;12.92;100.00;99980.81;2033985;29;20596;-71
2022/05/09 03:04:38;;;;;;;26.25;24.05;;;;;;;12.93;100.00;99984.28;2033935;29;20200;-71
2022/05/09 03:05:25;;;;;;;25.05;22.73;;;;;;;12.82;100.00;99975.59;2036628;29;20621;-71
2022/05/09 03:06:26;;;;;;;25.35;23.13;;;;;;;12.81;100.00;99984.72;2041871;29;20227;-71
2022/05/09 03:07:29;;;;;;;26.70;24.40;;;;;;;12.84;100.00;99980.66;2042260;29;20198;-70
2022/05/09 03:08:31;;;;;;;26.88;24.42;;;;;;;12.83;100.00;99984.41;2042294;29;20226;-71
2022/05/09 03:09:34;;;;;;;26.70;24.25;;;;;;;12.94;100.00;99984.00;2042063;29;20254;-71
2022/05/09 03:10:35;;;;;;;27.88;25.60;;;;;;;13.08;100.00;99980.59;2042158;29;20206;-70
2022/05/09 03:11:37;;;;;;;26.15;23.83;;;;;;;13.11;100.00;99974.66;2042308;29;20561;-70
2022/05/09 03:12:38;;;;;;;27.40;24.92;;;;;;;13.09;100.00;99979.50;2042169;29;20549;-71
2022/05/09 03:13:41;;;;;;;27.07;24.77;;;;;;;13.02;100.00;99975.28;2042311;29;20198;-71
2022/05/09 03:14:43;;;;;;;27.17;24.77;;;;;;;13.08;100.00;99983.28;2033904;29;20199;-70
2022/05/09 03:15:47;;;;;;;27.10;24.60;;;;;;;13.06;100.00;99978.22;2041495;29;20231;-71
2022/05/09 03:16:49;;;;;;;25.10;22.83;;;;;;;13.11;100.00;99975.44;2049206;29;20201;-70
2022/05/09 03:17:49;;;;;;;26.02;23.80;;;;;;;13.18;100.00;99975.09;2042148;29;20203;-70
2022/05/09 03:18:54;;;;;;;26.35;24.10;;;;;;;13.08;100.00;99977.91;2042199;29;20192;-70
2022/05/09 03:19:55;;;;;;;25.73;23.25;;;;;;;13.20;100.00;99976.41;2033643;29;20204;-70
2022/05/09 03:20:58;;;;;;;24.93;22.67;;;;;;;13.32;100.00;99981.34;2033209;29;20287;-70
2022/05/09 03:22:02;;;;;;;24.13;22.13;;;;;;;13.30;100.00;99967.44;2041465;29;20188;-70
2022/05/09 03:23:05;;;;;;;23.80;21.80;;;;;;;13.30;100.00;99956.72;2041705;29;20195;-70
2022/05/09 03:24:07;;;;;;;24.50;22.40;;;;;;;13.31;100.00;99947.59;2042093;29;20202;-71
2022/05/09 03:25:10;;;;;;;25.38;22.75;;;;;;;13.32;100.00;99951.06;2042155;29;20649;-70
2022/05/09 03:26:11;;;;;;;24.27;22.02;;;;;;;13.38;100.00;99952.56;2042292;29;20195;-70
2022/05/09 03:27:14;;;;;;;24.53;22.23;;;;;;;13.33;100.00;99942.72;2042118;29;20192;-70
2022/05/09 03:28:19;;;;;;;24.20;22.05;;;;;;;13.27;100.00;99951.94;2042128;29;20191;-70
2022/05/09 03:29:25;;;;;;;24.33;22.23;;;;;;;13.30;100.00;99948.69;2033153;29;20294;-71
2022/05/09 03:30:28;;;;;;;24.95;22.67;;;;;;;13.27;100.00;99947.38;2026168;29;20208;-70
2022/05/09 03:31:30;;;;;;;25.02;22.83;;;;;;;13.27;100.00;99950.03;2033941;29;20299;-70
2022/05/09 03:32:31;;;;;;;24.70;22.60;;;;;;;13.29;100.00;99944.38;2042089;29;20195;-71
2022/05/09 03:33:32;;;;;;;25.30;22.97;;;;;;;13.25;100.00;99956.78;2042269;29;20183;-70
2022/05/09 03:34:33;;;;;;;25.50;23.35;;;;;;;13.17;100.00;99952.06;2042082;29;20195;-70
2022/05/09 03:35:36;;;;;;;26.85;24.35;;;;;;;13.14;100.00;99950.78;2042121;29;20187;-71
2022/05/09 03:36:39;;;;;;;25.50;23.30;;;;;;;13.08;100.00;99959.16;2041641;29;20697;-70
2022/05/09 03:37:39;;;;;;;25.95;23.55;;;;;;;12.97;100.00;99950.47;2041337;29;20203;-71
2022/05/09 03:38:41;;;;;;;25.73;23.40;;;;;;;12.87;100.00;99966.69;2041499;29;20324;-71
2022/05/09 03:39:42;;;;;;;24.67;22.58;;;;;;;12.72;100.00;99967.69;2042258;29;20191;-71
2022/05/09 03:40:45;;;;;;;26.93;24.47;;;;;;;12.68;100.00;99963.97;2032920;29;20212;-71
2022/05/09 03:41:47;;;;;;;25.90;23.63;;;;;;;12.56;100.00;99974.31;2033922;29;20200;-71
2022/05/09 03:42:50;;;;;;;27.60;24.98;;;;;;;12.62;100.00;99967.81;2040909;29;20207;-72
2022/05/09 03:43:52;;;;;;;26.20;23.80;;;;;;;12.52;100.00;99970.63;2041620;29;20202;-71
2022/05/09 03:44:53;;;;;;;27.25;24.35;;;;;;;12.53;100.00;99980.25;2033501;29;20211;-71
2022/05/09 03:45:55;;;;;;;25.97;23.50;;;;;;;12.51;100.00;99977.03;2025328;29;20247;-71
2022/05/09 03:46:55;;;;;;;25.48;23.23;;;;;;;12.48;100.00;99972.25;2033839;29;20204;-71
2022/05/09 03:47:57;;;;;;;24.37;22.17;;;;;;;12.45;100.00;99970.97;2041995;29;20195;-71
2022/05/09 03:49:01;;;;;;;25.67;23.20;;;;;;;12.52;100.00;99979.44;2042202;29;20202;-72
2022/05/09 03:50:03;;;;;;;26.35;23.90;;;;;;;12.50;100.00;99970.88;2041965;29;20569;-71
2022/05/09 03:51:04;;;;;;;26.20;23.70;;;;;;;12.49;100.00;99981.88;2040448;29;20643;-71
2022/05/09 03:52:06;;;;;;;24.77;22.67;;;;;;;12.51;100.00;99983.22;2041574;29;20179;-70
2022/05/09 03:53:07;;;;;;;26.13;23.75;;;;;;;12.47;100.00;99978.69;2041977;29;20603;-73
2022/05/09 03:54:09;;;;;;;25.27;23.10;;;;;;;12.42;100.00;99977.69;2041993;29;20191;-75
2022/05/09 03:55:09;;;;;;;26.33;23.65;;;;;;;12.55;100.00;99972.72;2042152;29;20199;-71
2022/05/09 03:56:15;;;;;;;25.43;23.23;;;;;;;12.60;100.00;99978.03;2041934;29;20226;-71
2022/05/09 03:57:18;;;;;;;26.52;24.13;;;;;;;12.56;100.00;99969.75;2042089;29;20262;-71
2022/05/09 03:58:22;;;;;;;27.85;25.13;;;;;;;12.67;100.00;99970.41;2042152;29;20191;-71
2022/05/09 03:59:23;;;;;;;26.00;23.77;;;;;;;12.71;100.00;99966.09;2041940;29;20680;-71
2022/05/09 04:00:26;;;;;;;27.80;25.40;;;;;;;12.55;100.00;99975.41;2040911;29;20591;-71
2022/05/09 04:01:28;;;;;;;27.55;25.13;;;;;;;12.53;100.00;99974.91;2041581;29;20227;-71
2022/05/09 04:02:29;;;;;;;26.02;23.83;;;;;;;12.56;100.00;99969.75;2042131;29;20202;-71
2022/05/09 04:03:32;;;;;;;26.37;23.87;;;;;;;12.56;100.00;99968.97;2041940;29;20285;-75
2022/05/09 04:04:32;;;;;;;25.85;23.55;;;;;;;12.53;100.00;99974.91;2033412;29;20617;-71
2022/05/09 04:05:35;;;;;;;25.53;23.13;;;;;;;12.54;100.00;99971.13;2033491;29;20278;-71
2022/05/09 04:06:36;;;;;;;25.67;23.30;;;;;;;12.60;100.00;99972.66;2041659;29;20227;-71
2022/05/09 04:07:39;;;;;;;25.85;23.17;;;;;;;12.58;100.00;99972.94;2042222;29;20257;-72
2022/05/09 04:08:41;;;;;;;25.05;22.95;;;;;;;12.60;100.00;99975.34;2041883;29;20210;-71
2022/05/09 04:09:44;;;;;;;25.65;23.38;;;;;;;12.55;100.00;99978.88;2041812;29;20265;-71
2022/05/09 04:10:46;;;;;;;26.33;24.02;;;;;;;12.54;100.00;99976.47;2033383;29;20192;-71
2022/05/09 04:11:51;;;;;;;26.02;23.67;;;;;;;12.58;100.00;99988.19;2026001;29;20195;-71
2022/05/09 04:12:52;;;;;;;26.13;23.60;;;;;;;12.60;100.00;99980.69;2033704;29;20282;-71
2022/05/09 04:13:54;;;;;;;26.25;23.70;;;;;;;12.70;100.00;99981.38;2042085;29;20202;-71
2022/05/09 04:17:34;;;;;;;26.63;24.20;;;;;;;12.79;100.00;99986.88;2033013;29;20666;-70
2022/05/09 04:18:37;;;;;;;26.02;23.83;;;;;;;12.79;100.00;99986.88;2033448;29;20270;-70
2022/05/09 04:19:38;;;;;;;26.45;24.20;;;;;;;12.87;100.00;99991.59;2041967;29;20684;-74
2022/05/09 04:20:40;;;;;;;26.48;24.15;;;;;;;12.89;100.00;99996.66;2041968;29;20246;-74
2022/05/09 04:21:41;;;;;;;26.35;24.13;;;;;;;12.90;100.00;99992.91;2032993;29;20227;-74
2022/05/09 04:22:43;;;;;;;26.25;24.02;;;;;;;12.85;100.00;99988.38;2033578;29;20196;-74
2022/05/09 04:23:45;;;;;;;24.75;22.45;;;;;;;12.91;100.00;99991.81;2042125;29;20191;-75
2022/05/09 04:24:46;;;;;;;24.70;22.80;;;;;;;12.94;100.00;99997.41;2042087;29;20615;-75
2022/05/09 04:25:48;;;;;;;26.67;23.63;;;;;;;12.96;100.00;99994.44;2041837;29;20198;-75
2022/05/09 04:26:51;;;;;;;26.02;23.58;;;;;;;13.00;100.00;99993.56;2034344;29;20590;-75
2022/05/09 04:27:54;;;;;;;24.77;22.58;;;;;;;13.11;100.00;99996.09;2035328;29;20196;-74
2022/05/09 04:28:55;;;;;;;24.73;22.48;;;;;;;13.16;100.00;99996.03;2043363;29;20562;-75
2022/05/09 04:29:56;;;;;;;25.95;23.60;;;;;;;13.26;100.00;100002.06;2043305;29;20194;-75
2022/05/09 04:30:59;;;;;;;25.20;23.00;;;;;;;13.32;100.00;99996.63;2042704;29;20203;-75
2022/05/09 04:32:07;;;;;;;24.90;22.80;;;;;;;13.41;100.00;100006.41;2042722;29;20206;-75
2022/05/09 04:33:09;;;;;;;26.15;23.73;;;;;;;13.40;100.00;100010.19;2042738;29;20759;-74
2022/05/09 04:34:11;;;;;;;25.50;22.77;;;;;;;13.35;100.00;100004.88;2043611;29;20202;-74
2022/05/09 04:35:17;;;;;;;24.95;22.65;;;;;;;13.39;100.00;100013.16;2043458;29;20614;-74
2022/05/09 04:36:19;;;;;;;24.33;22.08;;;;;;;13.40;100.00;100006.69;2034745;29;20300;-74
2022/05/09 04:37:21;;;;;;;24.27;22.17;;;;;;;13.42;100.00;100002.63;2027265;29;20695;-74
2022/05/09 04:38:25;;;;;;;25.50;23.08;;;;;;;13.42;100.00;100007.19;2027200;29;20630;-76
2022/05/09 04:39:26;;;;;;;25.77;23.38;;;;;;;13.41;100.00;100006.41;2027267;29;20706;-76
2022/05/09 04:40:32;;;;;;;25.95;23.50;;;;;;;13.50;100.00;100009.22;2034102;29;20199;-76
2022/05/09 04:41:33;;;;;;;26.95;24.45;;;;;;;13.48;100.00;100017.56;2026629;29;20211;-74
2022/05/09 04:42:36;;;;;;;26.47;23.80;;;;;;;13.60;100.00;100024.34;2027148;29;20203;-76
2022/05/09 04:43:38;;;;;;;26.20;23.80;;;;;;;13.61;100.00;100021.38;2034971;29;20251;-74
2022/05/09 04:44:40;;;;;;;24.42;22.33;;;;;;;13.64;100.00;100017.31;2043322;29;20195;-75
2022/05/09 04:45:44;;;;;;;24.42;22.23;;;;;;;13.68;100.00;100018.34;2034770;29;20213;-74
2022/05/09 04:46:46;;;;;;;25.00;22.60;;;;;;;13.68;100.00;100013.75;2042150;29;20290;-74
2022/05/09 04:47:49;;;;;;;24.43;22.17;;;;;;;13.70;100.00;100008.09;2042885;29;20188;-72
2022/05/09 04:48:51;;;;;;;24.38;22.40;;;;;;;13.75;100.00;100019.56;2042602;29;20242;-72
2022/05/09 04:49:51;;;;;;;25.80;23.50;;;;;;;13.80;100.00;100018.66;2042802;29;20203;-72
2022/05/09 04:50:55;;;;;;;25.03;22.87;;;;;;;13.78;100.00;100010.13;2033522;29;20303;-72
2022/05/09 04:51:57;;;;;;;24.55;22.55;;;;;;;13.84;100.00;100015.09;2034540;29;20682;-72
2022/05/09 04:52:59;;;;;;;25.10;22.93;;;;;;;13.84;100.00;100020.47;2042665;29;20313;-72
2022/05/09 04:54:00;;;;;;;25.17;23.02;;;;;;;13.81;100.00;100007.66;2034483;29;20302;-72